sensor_id;sensor_type;location;lat;lon;timestamp;P1;durP1;ratioP1;P2;durP2;ratioP2
22995;SDS011;11664;49.774;8.650;2024-03-02T00:01:11;5.10;;;3.80;;
22995;SDS011;11664;49.774;8.650;2024-03-02T00:03:37;4.28;;;3.88;;
22995;SDS011;11664;49.774;8.650;2024-03-02T00:06:03;6.85;;;5.82;;
22995;SDS011;11664;49.774;8.650;2024-03-02T00:08:29;5.93;;;4.93;;
22995;SDS011;11664;49.774;8.650;2024-03-02T00:10:58;10.07;;;5.35;;
22995;SDS011;11664;49.774;8.650;2024-03-02T00:13:25;4.97;;;4.63;;
22995;SDS011;11664;49.774;8.650;2024-03-02T00:15:51;9.18;;;4.00;;
22995;SDS011;11664;49.774;8.650;2024-03-02T00:18:30;3.78;;;3.53;;
22995;SDS011;11664;49.774;8.650;2024-03-02T00:20:56;4.00;;;3.60;;
22995;SDS011;11664;49.774;8.650;2024-03-02T00:23:23;3.97;;;3.60;;
22995;SDS011;11664;49.774;8.650;2024-03-02T00:25:50;4.93;;;4.53;;
22995;SDS011;11664;49.774;8.650;2024-03-02T00:28:21;5.05;;;4.65;;
22995;SDS011;11664;49.774;8.650;2024-03-02T00:30:52;5.07;;;4.03;;
22995;SDS011;11664;49.774;8.650;2024-03-02T00:33:23;4.05;;;3.60;;
22995;SDS011;11664;49.774;8.650;2024-03-02T00:35:51;4.20;;;3.40;;
22995;SDS011;11664;49.774;8.650;2024-03-02T00:38:17;3.17;;;2.97;;
22995;SDS011;11664;49.774;8.650;2024-03-02T00:40:43;3.35;;;3.05;;
22995;SDS011;11664;49.774;8.650;2024-03-02T00:43:37;3.70;;;3.50;;
22995;SDS011;11664;49.774;8.650;2024-03-02T00:46:06;3.90;;;3.60;;
22995;SDS011;11664;49.774;8.650;2024-03-02T00:48:32;3.75;;;3.50;;
22995;SDS011;11664;49.774;8.650;2024-03-02T00:51:00;3.78;;;3.47;;
22995;SDS011;11664;49.774;8.650;2024-03-02T00:53:28;3.72;;;3.42;;
22995;SDS011;11664;49.774;8.650;2024-03-02T00:55:55;3.20;;;2.90;;
22995;SDS011;11664;49.774;8.650;2024-03-02T00:58:20;3.15;;;2.95;;
22995;SDS011;11664;49.774;8.650;2024-03-02T01:00:46;3.38;;;3.13;;
22995;SDS011;11664;49.774;8.650;2024-03-02T01:03:11;3.80;;;3.55;;
22995;SDS011;11664;49.774;8.650;2024-03-02T01:05:40;4.60;;;4.20;;
22995;SDS011;11664;49.774;8.650;2024-03-02T01:08:07;4.25;;;3.92;;
22995;SDS011;11664;49.774;8.650;2024-03-02T01:10:33;4.28;;;3.88;;
22995;SDS011;11664;49.774;8.650;2024-03-02T01:12:59;4.40;;;4.10;;
22995;SDS011;11664;49.774;8.650;2024-03-02T01:15:25;4.63;;;4.38;;
22995;SDS011;11664;49.774;8.650;2024-03-02T01:17:50;4.55;;;4.25;;
22995;SDS011;11664;49.774;8.650;2024-03-02T01:20:16;5.80;;;4.40;;
22995;SDS011;11664;49.774;8.650;2024-03-02T01:22:42;4.82;;;4.30;;
22995;SDS011;11664;49.774;8.650;2024-03-02T01:25:08;5.13;;;4.63;;
22995;SDS011;11664;49.774;8.650;2024-03-02T01:27:34;3.17;;;2.97;;
22995;SDS011;11664;49.774;8.650;2024-03-02T01:29:59;4.78;;;4.47;;
22995;SDS011;11664;49.774;8.650;2024-03-02T01:32:25;5.95;;;5.50;;
22995;SDS011;11664;49.774;8.650;2024-03-02T01:34:51;5.40;;;5.10;;
22995;SDS011;11664;49.774;8.650;2024-03-02T01:37:16;4.97;;;4.65;;
22995;SDS011;11664;49.774;8.650;2024-03-02T01:39:42;3.83;;;3.53;;
22995;SDS011;11664;49.774;8.650;2024-03-02T01:42:07;5.60;;;4.30;;
22995;SDS011;11664;49.774;8.650;2024-03-02T01:44:33;4.65;;;4.35;;
22995;SDS011;11664;49.774;8.650;2024-03-02T01:46:58;4.78;;;4.40;;
22995;SDS011;11664;49.774;8.650;2024-03-02T01:49:24;8.20;;;7.57;;
22995;SDS011;11664;49.774;8.650;2024-03-02T01:51:49;4.55;;;4.25;;
22995;SDS011;11664;49.774;8.650;2024-03-02T01:54:15;4.43;;;3.75;;
22995;SDS011;11664;49.774;8.650;2024-03-02T01:56:41;4.75;;;4.45;;
22995;SDS011;11664;49.774;8.650;2024-03-02T01:59:06;3.85;;;3.10;;
22995;SDS011;11664;49.774;8.650;2024-03-02T02:01:32;4.53;;;3.78;;
22995;SDS011;11664;49.774;8.650;2024-03-02T02:03:58;3.85;;;3.60;;
22995;SDS011;11664;49.774;8.650;2024-03-02T02:06:23;13.48;;;12.57;;
22995;SDS011;11664;49.774;8.650;2024-03-02T02:08:49;7.18;;;6.78;;
22995;SDS011;11664;49.774;8.650;2024-03-02T02:11:17;4.43;;;4.22;;
22995;SDS011;11664;49.774;8.650;2024-03-02T02:13:43;5.43;;;5.13;;
22995;SDS011;11664;49.774;8.650;2024-03-02T02:16:09;5.18;;;4.88;;
22995;SDS011;11664;49.774;8.650;2024-03-02T02:18:35;5.30;;;4.90;;
22995;SDS011;11664;49.774;8.650;2024-03-02T02:21:03;5.15;;;4.85;;
22995;SDS011;11664;49.774;8.650;2024-03-02T02:23:29;5.03;;;4.78;;
22995;SDS011;11664;49.774;8.650;2024-03-02T02:25:54;6.50;;;5.72;;
22995;SDS011;11664;49.774;8.650;2024-03-02T02:28:20;6.60;;;6.20;;
22995;SDS011;11664;49.774;8.650;2024-03-02T02:30:46;6.93;;;6.43;;
22995;SDS011;11664;49.774;8.650;2024-03-02T02:33:11;7.63;;;7.22;;
22995;SDS011;11664;49.774;8.650;2024-03-02T02:35:37;6.75;;;6.45;;
22995;SDS011;11664;49.774;8.650;2024-03-02T02:38:02;8.15;;;7.65;;
22995;SDS011;11664;49.774;8.650;2024-03-02T02:40:29;8.45;;;7.95;;
22995;SDS011;11664;49.774;8.650;2024-03-02T02:42:55;9.25;;;8.75;;
22995;SDS011;11664;49.774;8.650;2024-03-02T02:45:21;7.97;;;7.55;;
22995;SDS011;11664;49.774;8.650;2024-03-02T02:47:47;7.22;;;6.93;;
22995;SDS011;11664;49.774;8.650;2024-03-02T02:50:13;7.72;;;7.32;;
22995;SDS011;11664;49.774;8.650;2024-03-02T02:52:40;9.27;;;8.77;;
22995;SDS011;11664;49.774;8.650;2024-03-02T02:55:06;9.40;;;8.85;;
22995;SDS011;11664;49.774;8.650;2024-03-02T02:57:33;9.88;;;9.10;;
22995;SDS011;11664;49.774;8.650;2024-03-02T03:00:22;7.88;;;7.40;;
22995;SDS011;11664;49.774;8.650;2024-03-02T03:02:48;9.07;;;8.52;;
22995;SDS011;11664;49.774;8.650;2024-03-02T03:05:14;9.88;;;9.32;;
22995;SDS011;11664;49.774;8.650;2024-03-02T03:07:40;7.10;;;6.60;;
22995;SDS011;11664;49.774;8.650;2024-03-02T03:10:07;5.78;;;5.47;;
22995;SDS011;11664;49.774;8.650;2024-03-02T03:12:33;4.40;;;4.20;;
22995;SDS011;11664;49.774;8.650;2024-03-02T03:14:59;5.45;;;5.10;;
22995;SDS011;11664;49.774;8.650;2024-03-02T03:17:25;5.28;;;4.95;;
22995;SDS011;11664;49.774;8.650;2024-03-02T03:19:52;4.55;;;4.35;;
22995;SDS011;11664;49.774;8.650;2024-03-02T03:22:17;4.47;;;4.28;;
22995;SDS011;11664;49.774;8.650;2024-03-02T03:24:43;3.58;;;3.45;;
22995;SDS011;11664;49.774;8.650;2024-03-02T03:27:09;3.97;;;3.78;;
22995;SDS011;11664;49.774;8.650;2024-03-02T03:29:36;3.75;;;3.53;;
22995;SDS011;11664;49.774;8.650;2024-03-02T03:32:02;3.83;;;3.40;;
22995;SDS011;11664;49.774;8.650;2024-03-02T03:34:28;3.63;;;3.42;;
22995;SDS011;11664;49.774;8.650;2024-03-02T03:36:54;3.95;;;3.63;;
22995;SDS011;11664;49.774;8.650;2024-03-02T03:39:19;3.78;;;3.58;;
22995;SDS011;11664;49.774;8.650;2024-03-02T03:41:45;4.10;;;3.80;;
22995;SDS011;11664;49.774;8.650;2024-03-02T03:44:11;3.85;;;3.65;;
22995;SDS011;11664;49.774;8.650;2024-03-02T03:46:36;3.85;;;3.65;;
22995;SDS011;11664;49.774;8.650;2024-03-02T03:49:02;4.53;;;4.15;;
22995;SDS011;11664;49.774;8.650;2024-03-02T03:51:28;4.38;;;4.18;;
22995;SDS011;11664;49.774;8.650;2024-03-02T03:53:55;4.07;;;3.88;;
22995;SDS011;11664;49.774;8.650;2024-03-02T03:56:21;3.70;;;3.47;;
22995;SDS011;11664;49.774;8.650;2024-03-02T03:58:46;3.60;;;3.40;;
22995;SDS011;11664;49.774;8.650;2024-03-02T04:01:12;3.47;;;3.28;;
22995;SDS011;11664;49.774;8.650;2024-03-02T04:03:38;5.38;;;5.05;;
22995;SDS011;11664;49.774;8.650;2024-03-02T04:06:03;9.88;;;9.38;;
22995;SDS011;11664;49.774;8.650;2024-03-02T04:08:29;9.30;;;8.80;;
22995;SDS011;11664;49.774;8.650;2024-03-02T04:10:55;3.72;;;3.53;;
22995;SDS011;11664;49.774;8.650;2024-03-02T04:13:20;5.30;;;5.00;;
22995;SDS011;11664;49.774;8.650;2024-03-02T04:15:46;5.90;;;5.60;;
22995;SDS011;11664;49.774;8.650;2024-03-02T04:18:11;5.93;;;5.53;;
22995;SDS011;11664;49.774;8.650;2024-03-02T04:20:37;5.65;;;5.35;;
22995;SDS011;11664;49.774;8.650;2024-03-02T04:23:02;5.38;;;5.07;;
22995;SDS011;11664;49.774;8.650;2024-03-02T04:25:28;8.45;;;7.95;;
22995;SDS011;11664;49.774;8.650;2024-03-02T04:27:54;10.05;;;9.55;;
22995;SDS011;11664;49.774;8.650;2024-03-02T04:30:19;8.27;;;7.88;;
22995;SDS011;11664;49.774;8.650;2024-03-02T04:32:45;7.05;;;6.65;;
22995;SDS011;11664;49.774;8.650;2024-03-02T04:35:14;5.70;;;5.25;;
22995;SDS011;11664;49.774;8.650;2024-03-02T04:37:39;4.75;;;4.35;;
22995;SDS011;11664;49.774;8.650;2024-03-02T04:40:05;5.55;;;4.10;;
22995;SDS011;11664;49.774;8.650;2024-03-02T04:42:33;4.85;;;4.50;;
22995;SDS011;11664;49.774;8.650;2024-03-02T04:44:59;10.60;;;10.00;;
22995;SDS011;11664;49.774;8.650;2024-03-02T04:47:24;12.35;;;11.65;;
22995;SDS011;11664;49.774;8.650;2024-03-02T04:49:50;12.13;;;11.43;;
22995;SDS011;11664;49.774;8.650;2024-03-02T04:52:15;4.93;;;4.53;;
22995;SDS011;11664;49.774;8.650;2024-03-02T04:54:41;6.55;;;6.07;;
22995;SDS011;11664;49.774;8.650;2024-03-02T04:57:25;7.20;;;6.38;;
22995;SDS011;11664;49.774;8.650;2024-03-02T04:59:51;5.25;;;4.75;;
22995;SDS011;11664;49.774;8.650;2024-03-02T05:02:16;10.88;;;10.18;;
22995;SDS011;11664;49.774;8.650;2024-03-02T05:04:42;7.40;;;6.68;;
22995;SDS011;11664;49.774;8.650;2024-03-02T05:07:07;4.95;;;4.55;;
22995;SDS011;11664;49.774;8.650;2024-03-02T05:09:33;6.95;;;6.32;;
22995;SDS011;11664;49.774;8.650;2024-03-02T05:11:58;5.75;;;5.25;;
22995;SDS011;11664;49.774;8.650;2024-03-02T05:14:42;8.38;;;7.65;;
22995;SDS011;11664;49.774;8.650;2024-03-02T05:17:07;5.75;;;5.13;;
22995;SDS011;11664;49.774;8.650;2024-03-02T05:19:33;5.53;;;4.72;;
22995;SDS011;11664;49.774;8.650;2024-03-02T05:21:58;7.03;;;4.97;;
22995;SDS011;11664;49.774;8.650;2024-03-02T05:24:24;5.60;;;5.10;;
22995;SDS011;11664;49.774;8.650;2024-03-02T05:26:52;7.40;;;4.53;;
22995;SDS011;11664;49.774;8.650;2024-03-02T05:29:17;7.68;;;4.47;;
22995;SDS011;11664;49.774;8.650;2024-03-02T05:31:43;7.03;;;4.78;;
22995;SDS011;11664;49.774;8.650;2024-03-02T05:34:09;6.28;;;4.10;;
22995;SDS011;11664;49.774;8.650;2024-03-02T05:36:34;5.97;;;4.38;;
22995;SDS011;11664;49.774;8.650;2024-03-02T05:39:00;6.85;;;5.00;;
22995;SDS011;11664;49.774;8.650;2024-03-02T05:41:26;7.10;;;6.32;;
22995;SDS011;11664;49.774;8.650;2024-03-02T05:43:52;5.90;;;5.32;;
22995;SDS011;11664;49.774;8.650;2024-03-02T05:46:17;7.20;;;6.47;;
22995;SDS011;11664;49.774;8.650;2024-03-02T05:48:43;8.60;;;7.32;;
22995;SDS011;11664;49.774;8.650;2024-03-02T05:51:08;8.50;;;6.68;;
22995;SDS011;11664;49.774;8.650;2024-03-02T05:53:34;9.20;;;6.78;;
22995;SDS011;11664;49.774;8.650;2024-03-02T05:55:59;8.75;;;6.82;;
22995;SDS011;11664;49.774;8.650;2024-03-02T05:58:25;9.43;;;7.40;;
22995;SDS011;11664;49.774;8.650;2024-03-02T06:01:11;6.35;;;5.70;;
22995;SDS011;11664;49.774;8.650;2024-03-02T06:03:36;8.63;;;5.70;;
22995;SDS011;11664;49.774;8.650;2024-03-02T06:06:02;8.50;;;5.95;;
22995;SDS011;11664;49.774;8.650;2024-03-02T06:08:28;7.28;;;5.82;;
22995;SDS011;11664;49.774;8.650;2024-03-02T06:10:53;7.90;;;7.15;;
22995;SDS011;11664;49.774;8.650;2024-03-02T06:13:19;11.05;;;7.85;;
22995;SDS011;11664;49.774;8.650;2024-03-02T06:15:44;8.18;;;7.38;;
22995;SDS011;11664;49.774;8.650;2024-03-02T06:18:10;8.23;;;7.43;;
22995;SDS011;11664;49.774;8.650;2024-03-02T06:20:35;7.18;;;6.40;;
22995;SDS011;11664;49.774;8.650;2024-03-02T06:23:02;6.90;;;6.30;;
22995;SDS011;11664;49.774;8.650;2024-03-02T06:25:27;10.60;;;9.70;;
22995;SDS011;11664;49.774;8.650;2024-03-02T06:27:53;8.20;;;7.50;;
22995;SDS011;11664;49.774;8.650;2024-03-02T06:30:19;7.03;;;5.93;;
22995;SDS011;11664;49.774;8.650;2024-03-02T06:32:44;8.63;;;7.82;;
22995;SDS011;11664;49.774;8.650;2024-03-02T06:35:10;11.00;;;10.10;;
22995;SDS011;11664;49.774;8.650;2024-03-02T06:37:36;10.55;;;8.57;;
22995;SDS011;11664;49.774;8.650;2024-03-02T06:40:03;10.55;;;9.65;;
22995;SDS011;11664;49.774;8.650;2024-03-02T06:42:29;9.40;;;8.15;;
22995;SDS011;11664;49.774;8.650;2024-03-02T06:44:58;8.77;;;6.95;;
22995;SDS011;11664;49.774;8.650;2024-03-02T06:47:24;8.77;;;6.97;;
22995;SDS011;11664;49.774;8.650;2024-03-02T06:49:49;10.00;;;9.05;;
22995;SDS011;11664;49.774;8.650;2024-03-02T06:52:15;12.88;;;11.70;;
22995;SDS011;11664;49.774;8.650;2024-03-02T06:54:41;16.15;;;14.48;;
22995;SDS011;11664;49.774;8.650;2024-03-02T06:57:07;16.63;;;15.18;;
22995;SDS011;11664;49.774;8.650;2024-03-02T06:59:32;14.95;;;13.75;;
22995;SDS011;11664;49.774;8.650;2024-03-02T07:01:58;10.85;;;9.43;;
22995;SDS011;11664;49.774;8.650;2024-03-02T07:04:24;10.57;;;6.97;;
22995;SDS011;11664;49.774;8.650;2024-03-02T07:06:49;9.85;;;7.10;;
22995;SDS011;11664;49.774;8.650;2024-03-02T07:09:16;11.82;;;10.82;;
22995;SDS011;11664;49.774;8.650;2024-03-02T07:11:42;9.50;;;8.63;;
22995;SDS011;11664;49.774;8.650;2024-03-02T07:14:11;9.80;;;8.88;;
22995;SDS011;11664;49.774;8.650;2024-03-02T07:16:37;8.45;;;7.13;;
22995;SDS011;11664;49.774;8.650;2024-03-02T07:19:11;10.88;;;8.25;;
22995;SDS011;11664;49.774;8.650;2024-03-02T07:21:37;13.82;;;12.52;;
22995;SDS011;11664;49.774;8.650;2024-03-02T07:24:03;12.77;;;9.05;;
22995;SDS011;11664;49.774;8.650;2024-03-02T07:26:30;10.80;;;9.25;;
22995;SDS011;11664;49.774;8.650;2024-03-02T07:28:56;8.82;;;6.90;;
22995;SDS011;11664;49.774;8.650;2024-03-02T07:31:22;10.00;;;8.98;;
22995;SDS011;11664;49.774;8.650;2024-03-02T07:33:47;7.47;;;6.57;;
22995;SDS011;11664;49.774;8.650;2024-03-02T07:36:13;10.02;;;6.80;;
22995;SDS011;11664;49.774;8.650;2024-03-02T07:38:39;7.30;;;5.88;;
22995;SDS011;11664;49.774;8.650;2024-03-02T07:41:05;9.50;;;6.82;;
22995;SDS011;11664;49.774;8.650;2024-03-02T07:43:31;9.18;;;6.60;;
22995;SDS011;11664;49.774;8.650;2024-03-02T07:45:58;9.73;;;7.03;;
22995;SDS011;11664;49.774;8.650;2024-03-02T07:48:23;11.82;;;7.40;;
22995;SDS011;11664;49.774;8.650;2024-03-02T07:50:50;21.38;;;19.48;;
22995;SDS011;11664;49.774;8.650;2024-03-02T07:53:15;22.90;;;21.10;;
22995;SDS011;11664;49.774;8.650;2024-03-02T07:55:41;13.27;;;9.80;;
22995;SDS011;11664;49.774;8.650;2024-03-02T07:58:07;19.45;;;17.65;;
22995;SDS011;11664;49.774;8.650;2024-03-02T08:00:32;18.55;;;16.75;;
22995;SDS011;11664;49.774;8.650;2024-03-02T08:02:58;15.95;;;11.68;;
22995;SDS011;11664;49.774;8.650;2024-03-02T08:05:24;13.27;;;9.98;;
22995;SDS011;11664;49.774;8.650;2024-03-02T08:07:49;18.10;;;16.50;;
22995;SDS011;11664;49.774;8.650;2024-03-02T08:10:18;19.88;;;14.88;;
22995;SDS011;11664;49.774;8.650;2024-03-02T08:12:44;11.45;;;10.25;;
22995;SDS011;11664;49.774;8.650;2024-03-02T08:15:10;13.15;;;9.95;;
22995;SDS011;11664;49.774;8.650;2024-03-02T08:17:37;14.40;;;10.85;;
22995;SDS011;11664;49.774;8.650;2024-03-02T08:20:06;15.05;;;9.48;;
22995;SDS011;11664;49.774;8.650;2024-03-02T08:22:33;10.73;;;8.02;;
22995;SDS011;11664;49.774;8.650;2024-03-02T08:24:58;10.90;;;8.00;;
22995;SDS011;11664;49.774;8.650;2024-03-02T08:27:24;12.65;;;7.20;;
22995;SDS011;11664;49.774;8.650;2024-03-02T08:29:49;8.65;;;6.25;;
22995;SDS011;11664;49.774;8.650;2024-03-02T08:32:15;8.82;;;5.93;;
22995;SDS011;11664;49.774;8.650;2024-03-02T08:34:42;8.30;;;6.25;;
22995;SDS011;11664;49.774;8.650;2024-03-02T08:37:07;10.13;;;6.43;;
22995;SDS011;11664;49.774;8.650;2024-03-02T08:39:33;9.30;;;6.35;;
22995;SDS011;11664;49.774;8.650;2024-03-02T08:41:59;8.77;;;5.93;;
22995;SDS011;11664;49.774;8.650;2024-03-02T08:44:24;10.10;;;7.68;;
22995;SDS011;11664;49.774;8.650;2024-03-02T08:46:50;10.57;;;7.85;;
22995;SDS011;11664;49.774;8.650;2024-03-02T08:49:15;8.30;;;6.78;;
22995;SDS011;11664;49.774;8.650;2024-03-02T08:51:41;11.43;;;6.38;;
22995;SDS011;11664;49.774;8.650;2024-03-02T08:54:06;7.45;;;5.63;;
22995;SDS011;11664;49.774;8.650;2024-03-02T08:56:32;11.20;;;7.68;;
22995;SDS011;11664;49.774;8.650;2024-03-02T08:58:57;9.20;;;6.95;;
22995;SDS011;11664;49.774;8.650;2024-03-02T09:01:23;10.05;;;6.15;;
22995;SDS011;11664;49.774;8.650;2024-03-02T09:03:49;7.78;;;5.22;;
22995;SDS011;11664;49.774;8.650;2024-03-02T09:06:14;7.45;;;5.93;;
22995;SDS011;11664;49.774;8.650;2024-03-02T09:08:42;8.93;;;5.97;;
22995;SDS011;11664;49.774;8.650;2024-03-02T09:11:08;7.65;;;5.70;;
22995;SDS011;11664;49.774;8.650;2024-03-02T09:13:35;8.27;;;5.75;;
22995;SDS011;11664;49.774;8.650;2024-03-02T09:16:01;6.88;;;5.05;;
22995;SDS011;11664;49.774;8.650;2024-03-02T09:18:27;8.30;;;5.25;;
22995;SDS011;11664;49.774;8.650;2024-03-02T09:20:53;7.80;;;5.85;;
22995;SDS011;11664;49.774;8.650;2024-03-02T09:23:18;7.68;;;5.25;;
22995;SDS011;11664;49.774;8.650;2024-03-02T09:25:45;12.52;;;5.60;;
22995;SDS011;11664;49.774;8.650;2024-03-02T09:28:11;9.07;;;5.82;;
22995;SDS011;11664;49.774;8.650;2024-03-02T09:30:37;8.27;;;6.65;;
22995;SDS011;11664;49.774;8.650;2024-03-02T09:33:03;7.93;;;5.97;;
22995;SDS011;11664;49.774;8.650;2024-03-02T09:35:28;9.02;;;5.93;;
22995;SDS011;11664;49.774;8.650;2024-03-02T09:37:55;7.25;;;4.93;;
22995;SDS011;11664;49.774;8.650;2024-03-02T09:40:21;8.10;;;5.82;;
22995;SDS011;11664;49.774;8.650;2024-03-02T09:42:47;6.28;;;5.68;;
22995;SDS011;11664;49.774;8.650;2024-03-02T09:45:18;8.25;;;6.05;;
22995;SDS011;11664;49.774;8.650;2024-03-02T09:47:47;7.05;;;5.88;;
22995;SDS011;11664;49.774;8.650;2024-03-02T09:50:13;10.98;;;5.28;;
22995;SDS011;11664;49.774;8.650;2024-03-02T09:52:39;6.53;;;4.78;;
22995;SDS011;11664;49.774;8.650;2024-03-02T09:55:07;7.70;;;5.05;;
22995;SDS011;11664;49.774;8.650;2024-03-02T09:57:33;5.85;;;4.30;;
22995;SDS011;11664;49.774;8.650;2024-03-02T09:59:59;5.05;;;4.05;;
22995;SDS011;11664;49.774;8.650;2024-03-02T10:02:24;6.38;;;4.78;;
22995;SDS011;11664;49.774;8.650;2024-03-02T10:04:50;6.55;;;4.82;;
22995;SDS011;11664;49.774;8.650;2024-03-02T10:07:16;8.43;;;4.35;;
22995;SDS011;11664;49.774;8.650;2024-03-02T10:09:46;5.38;;;4.53;;
22995;SDS011;11664;49.774;8.650;2024-03-02T10:12:14;5.60;;;5.05;;
22995;SDS011;11664;49.774;8.650;2024-03-02T10:14:41;5.22;;;4.70;;
22995;SDS011;11664;49.774;8.650;2024-03-02T10:17:11;5.10;;;4.60;;
22995;SDS011;11664;49.774;8.650;2024-03-02T10:19:38;5.93;;;5.32;;
22995;SDS011;11664;49.774;8.650;2024-03-02T10:22:04;6.47;;;5.13;;
22995;SDS011;11664;49.774;8.650;2024-03-02T10:24:36;5.10;;;4.68;;
22995;SDS011;11664;49.774;8.650;2024-03-02T10:27:27;5.15;;;4.65;;
22995;SDS011;11664;49.774;8.650;2024-03-02T10:29:52;4.65;;;4.25;;
22995;SDS011;11664;49.774;8.650;2024-03-02T10:32:18;5.68;;;5.18;;
22995;SDS011;11664;49.774;8.650;2024-03-02T10:34:47;5.85;;;5.32;;
22995;SDS011;11664;49.774;8.650;2024-03-02T10:37:13;7.80;;;7.10;;
22995;SDS011;11664;49.774;8.650;2024-03-02T10:39:39;6.20;;;5.68;;
22995;SDS011;11664;49.774;8.650;2024-03-02T10:42:05;7.30;;;6.80;;
22995;SDS011;11664;49.774;8.650;2024-03-02T10:44:32;6.35;;;5.82;;
22995;SDS011;11664;49.774;8.650;2024-03-02T10:47:02;5.35;;;4.88;;
22995;SDS011;11664;49.774;8.650;2024-03-02T10:49:29;5.55;;;4.75;;
22995;SDS011;11664;49.774;8.650;2024-03-02T10:51:57;5.28;;;4.88;;
22995;SDS011;11664;49.774;8.650;2024-03-02T10:54:26;7.13;;;5.45;;
22995;SDS011;11664;49.774;8.650;2024-03-02T10:56:53;7.43;;;6.82;;
22995;SDS011;11664;49.774;8.650;2024-03-02T11:01:53;8.80;;;8.10;;
22995;SDS011;11664;49.774;8.650;2024-03-02T11:04:22;6.72;;;6.25;;
22995;SDS011;11664;49.774;8.650;2024-03-02T11:06:51;5.03;;;4.55;;
22995;SDS011;11664;49.774;8.650;2024-03-02T11:09:21;4.88;;;4.43;;
22995;SDS011;11664;49.774;8.650;2024-03-02T11:11:54;5.68;;;4.45;;
22995;SDS011;11664;49.774;8.650;2024-03-02T11:14:27;5.18;;;4.78;;
22995;SDS011;11664;49.774;8.650;2024-03-02T11:16:56;4.80;;;4.35;;
22995;SDS011;11664;49.774;8.650;2024-03-02T11:19:22;5.10;;;4.45;;
22995;SDS011;11664;49.774;8.650;2024-03-02T11:21:49;4.47;;;4.18;;
22995;SDS011;11664;49.774;8.650;2024-03-02T11:26:47;10.13;;;9.52;;
22995;SDS011;11664;49.774;8.650;2024-03-02T11:32:00;12.57;;;11.80;;
22995;SDS011;11664;49.774;8.650;2024-03-02T11:36:56;3.83;;;3.53;;
22995;SDS011;11664;49.774;8.650;2024-03-02T11:39:23;9.52;;;9.00;;
22995;SDS011;11664;49.774;8.650;2024-03-02T11:41:50;19.45;;;18.33;;
22995;SDS011;11664;49.774;8.650;2024-03-02T11:44:16;26.67;;;24.98;;
22995;SDS011;11664;49.774;8.650;2024-03-02T11:46:42;17.13;;;16.23;;
22995;SDS011;11664;49.774;8.650;2024-03-02T11:49:13;8.20;;;7.57;;
22995;SDS011;11664;49.774;8.650;2024-03-02T11:51:39;4.82;;;4.35;;
22995;SDS011;11664;49.774;8.650;2024-03-02T11:54:25;23.92;;;22.63;;
22995;SDS011;11664;49.774;8.650;2024-03-02T11:56:52;30.05;;;28.38;;
22995;SDS011;11664;49.774;8.650;2024-03-02T11:59:19;22.65;;;21.45;;
22995;SDS011;11664;49.774;8.650;2024-03-02T12:01:45;11.55;;;10.95;;
22995;SDS011;11664;49.774;8.650;2024-03-02T12:04:13;5.88;;;5.55;;
22995;SDS011;11664;49.774;8.650;2024-03-02T12:06:39;5.05;;;4.65;;
22995;SDS011;11664;49.774;8.650;2024-03-02T12:09:04;10.43;;;9.82;;
22995;SDS011;11664;49.774;8.650;2024-03-02T12:11:30;20.02;;;18.65;;
22995;SDS011;11664;49.774;8.650;2024-03-02T12:13:55;15.75;;;14.90;;
22995;SDS011;11664;49.774;8.650;2024-03-02T12:16:25;4.28;;;4.03;;
22995;SDS011;11664;49.774;8.650;2024-03-02T12:18:51;3.20;;;2.90;;
22995;SDS011;11664;49.774;8.650;2024-03-02T12:21:17;2.70;;;2.47;;
22995;SDS011;11664;49.774;8.650;2024-03-02T12:23:43;4.05;;;3.35;;
22995;SDS011;11664;49.774;8.650;2024-03-02T12:26:09;3.00;;;2.80;;
22995;SDS011;11664;49.774;8.650;2024-03-02T12:28:34;3.03;;;2.83;;
22995;SDS011;11664;49.774;8.650;2024-03-02T12:31:00;2.97;;;2.78;;
22995;SDS011;11664;49.774;8.650;2024-03-02T12:33:25;3.10;;;2.80;;
22995;SDS011;11664;49.774;8.650;2024-03-02T12:35:52;2.90;;;2.70;;
22995;SDS011;11664;49.774;8.650;2024-03-02T12:38:18;3.33;;;3.13;;
22995;SDS011;11664;49.774;8.650;2024-03-02T12:40:44;5.03;;;2.92;;
22995;SDS011;11664;49.774;8.650;2024-03-02T12:43:12;3.00;;;2.80;;
22995;SDS011;11664;49.774;8.650;2024-03-02T12:45:37;3.05;;;2.85;;
22995;SDS011;11664;49.774;8.650;2024-03-02T12:48:04;3.03;;;2.83;;
22995;SDS011;11664;49.774;8.650;2024-03-02T12:50:30;3.20;;;2.67;;
22995;SDS011;11664;49.774;8.650;2024-03-02T12:52:56;3.00;;;2.80;;
22995;SDS011;11664;49.774;8.650;2024-03-02T12:55:22;3.40;;;3.20;;
22995;SDS011;11664;49.774;8.650;2024-03-02T12:57:49;3.45;;;3.25;;
22995;SDS011;11664;49.774;8.650;2024-03-02T13:00:17;2.70;;;2.60;;
22995;SDS011;11664;49.774;8.650;2024-03-02T13:02:45;2.72;;;2.63;;
22995;SDS011;11664;49.774;8.650;2024-03-02T13:05:11;2.78;;;2.60;;
22995;SDS011;11664;49.774;8.650;2024-03-02T13:07:37;2.70;;;2.55;;
22995;SDS011;11664;49.774;8.650;2024-03-02T13:10:03;2.85;;;2.65;;
22995;SDS011;11664;49.774;8.650;2024-03-02T13:12:30;2.88;;;2.67;;
22995;SDS011;11664;49.774;8.650;2024-03-02T13:14:57;3.08;;;2.97;;
22995;SDS011;11664;49.774;8.650;2024-03-02T13:17:27;3.13;;;2.97;;
22995;SDS011;11664;49.774;8.650;2024-03-02T13:22:20;3.47;;;3.20;;
22995;SDS011;11664;49.774;8.650;2024-03-02T13:24:46;2.85;;;2.75;;
22995;SDS011;11664;49.774;8.650;2024-03-02T13:27:12;2.55;;;2.45;;
22995;SDS011;11664;49.774;8.650;2024-03-02T13:29:37;3.03;;;2.80;;
22995;SDS011;11664;49.774;8.650;2024-03-02T13:32:03;2.92;;;2.78;;
22995;SDS011;11664;49.774;8.650;2024-03-02T13:34:29;3.10;;;2.90;;
22995;SDS011;11664;49.774;8.650;2024-03-02T13:36:54;3.10;;;2.90;;
22995;SDS011;11664;49.774;8.650;2024-03-02T13:39:20;2.70;;;2.60;;
22995;SDS011;11664;49.774;8.650;2024-03-02T13:41:46;2.90;;;2.72;;
22995;SDS011;11664;49.774;8.650;2024-03-02T13:44:17;2.30;;;2.20;;
22995;SDS011;11664;49.774;8.650;2024-03-02T13:46:44;2.47;;;2.38;;
22995;SDS011;11664;49.774;8.650;2024-03-02T13:49:10;3.50;;;3.20;;
22995;SDS011;11664;49.774;8.650;2024-03-02T13:51:36;3.15;;;2.85;;
22995;SDS011;11664;49.774;8.650;2024-03-02T13:54:02;2.88;;;2.67;;
22995;SDS011;11664;49.774;8.650;2024-03-02T13:56:28;3.65;;;3.35;;
22995;SDS011;11664;49.774;8.650;2024-03-02T13:58:54;3.60;;;3.30;;
22995;SDS011;11664;49.774;8.650;2024-03-02T14:01:20;2.50;;;2.40;;
22995;SDS011;11664;49.774;8.650;2024-03-02T14:03:46;2.67;;;2.58;;
22995;SDS011;11664;49.774;8.650;2024-03-02T14:06:12;2.60;;;2.50;;
22995;SDS011;11664;49.774;8.650;2024-03-02T14:08:38;2.53;;;2.42;;
22995;SDS011;11664;49.774;8.650;2024-03-02T14:11:04;2.50;;;2.40;;
22995;SDS011;11664;49.774;8.650;2024-03-02T14:13:29;2.67;;;2.58;;
22995;SDS011;11664;49.774;8.650;2024-03-02T14:15:55;3.00;;;2.80;;
22995;SDS011;11664;49.774;8.650;2024-03-02T14:18:21;2.80;;;2.60;;
22995;SDS011;11664;49.774;8.650;2024-03-02T14:20:47;2.63;;;2.53;;
22995;SDS011;11664;49.774;8.650;2024-03-02T14:23:18;3.08;;;2.85;;
22995;SDS011;11664;49.774;8.650;2024-03-02T14:25:45;2.90;;;2.67;;
22995;SDS011;11664;49.774;8.650;2024-03-02T14:28:10;3.63;;;3.40;;
22995;SDS011;11664;49.774;8.650;2024-03-02T14:30:37;2.72;;;2.63;;
22995;SDS011;11664;49.774;8.650;2024-03-02T14:33:02;3.15;;;2.95;;
22995;SDS011;11664;49.774;8.650;2024-03-02T14:35:28;3.03;;;2.92;;
22995;SDS011;11664;49.774;8.650;2024-03-02T14:37:54;2.10;;;2.00;;
22995;SDS011;11664;49.774;8.650;2024-03-02T14:40:20;2.45;;;2.35;;
22995;SDS011;11664;49.774;8.650;2024-03-02T14:42:46;2.50;;;2.40;;
22995;SDS011;11664;49.774;8.650;2024-03-02T14:45:13;2.90;;;2.80;;
22995;SDS011;11664;49.774;8.650;2024-03-02T14:47:39;2.65;;;2.45;;
22995;SDS011;11664;49.774;8.650;2024-03-02T14:50:04;2.60;;;2.50;;
22995;SDS011;11664;49.774;8.650;2024-03-02T14:52:34;2.45;;;2.35;;